Hovedside
METAR-TAF:

METAR-TAF

Lufthavner :

Ouagadougou lufthavn

Ouagadougou, Burkina Faso

breddegrad: 12-21N, lengdegrad: 001-31W, høyde over havet: 316 m

Gjeldene værobservasjon

Denne rapporten ble laget for 55 minutter siden, klokken 20:00 UTC
Vind 8 kt fra Sør-sørvest
Temperatur 29°C
Luftfuktighet 70%
Trykk 1011 hPa
Sikt 10 km eller mer
ingen skyer under 1500 m og ingen bygeskyer

METAR: DFFD 252000Z 20008KT CAVOK 29/23 Q1011 NOSIG

Tid: 20:55 (20:55 UTC)

Varsel

Denne rapporten ble laget for 3 timer og 55 minutter siden, klokken 17:00 UTC
Varsel gyldig fra 25. klokken 18 UTC til 26. klokken 24 UTC
Vind 8 kt fra Sør
Sikt 10 km eller mer
Få skyer i en høyde av 2300 ft
Sannsynlighet 30% :
Midlertidig
fra 25. klokken 18 UTC til 26. klokken 02 UTC
Få skyer i en høyde av 2300 ft
Få skyer i en høyde av 3600 ft, Bygeskyer.
torden,

TAF: DFFD 251700Z 2518/2624 18008KT 9999 FEW023 PROB30 TEMPO 2518/2602 TS FEW023 FEW036CB

Værobservasjoner og værvarsel for over 4000 flyplasser (METAR- og TAF-rapporter).

Tilgjengelige stasjoner er representert av de røde og gule prikkene på kartet.

Hold musepekeren over prikken for å se navnet på stasjonen.

Klikk så for å se værobservasjoner og -varsler.

For å forandre kartet kan du klikke på den grønne knappen med svart kryss for å zoome inn, på den grønne knappen med strek for å zoome ut, eller på de grønne pilene for å se tilstøtende kart.


METAR-TAF: